Chiricana — 3EKU3 — position and weather

sailwx.info

Track history (hours):
 
Tides and Currents Weather Stations Pressure Air Temp Water Temp Dewpoint Dewpoint Depression Visibility Wind Speed Wind Dir Waves Ship Positions

Chiricana

Last reported at 2014-Oct-21 06:00 UTC. Time now 2014-Oct-23 04:32 UTC.
Position N 15°00' E 041°48'.

Length 300 m; draft 12 m.

Type: Ship (hazmat cat B). MMSI: 372829000.

Wind from 150 at 26 knots

Waves 3.0 meters (10 feet), 2 second period

Barometer 1013.0 mb
Air temperature 31.0 ° C
Visibility: greater than 2.2 NM
Dewpoint 27.0 ° C
Water temperature 31.0 ° C

Date/timePositionNaut miles runAvg speedWind from/ knotsBaromVisibWave heightAir tempDewpointWater temp
2014-Oct-21 06:00N 15°00' E 041°48'   150 / 261013.0 2.2 3.031.027.031.0
2014-Oct-17 17:20N 31°24' E 032°19'2 1.2
2014-Oct-17 15:33N 31°26' E 032°17'21015.9
2014-Oct-17 02:20N 32°46' E 028°28'29216.0
2014-Oct-16 08:08N 34°13' E 022°53'5816.1
2014-Oct-16 04:33N 34°30' E 021°47'1615.8
2014-Oct-16 03:33N 34°35' E 021°29'1615.7
2014-Oct-16 02:33N 34°39' E 021°10'1615.7
2014-Oct-16 01:33N 34°44' E 020°52'1515.3
2014-Oct-16 00:33N 34°49' E 020°34'1615.7
2014-Oct-15 23:33N 34°53' E 020°16'1615.9
2014-Oct-15 22:33N 34°58' E 019°58'1615.9
2014-Oct-15 21:33N 35°02' E 019°39'1615.9
2014-Oct-15 20:33N 35°07' E 019°20'1615.8
2014-Oct-15 19:32N 35°12' E 019°02'1615.8
2014-Oct-15 18:33N 35°17' E 018°43'16116.1
2014-Oct-15 08:33N 36°05' E 015°34'1816.5
2014-Oct-15 07:29N 36°10' E 015°13'2016.2
2014-Oct-15 06:14N 36°16' E 014°49'1116.3
2014-Oct-15 05:33N 36°20' E 014°36'1616.2
2014-Oct-15 04:34N 36°24' E 014°17'1616.1
2014-Oct-15 03:34N 36°29' E 013°58'1615.9
2014-Oct-15 02:34N 36°34' E 013°39'1615.8
2014-Oct-15 01:34N 36°38' E 013°20'1615.6
2014-Oct-15 00:34N 36°43' E 013°02'1615.7
2014-Oct-14 23:34N 36°48' E 012°43'1615.9
2014-Oct-14 22:34N 36°53' E 012°24'1616.0
2014-Oct-14 21:34N 37°00' E 012°06'1616.2
2014-Oct-14 20:34N 37°07' E 011°48'1615.6
2014-Oct-14 19:32N 37°14' E 011°29'1515.6
2014-Oct-14 18:34N 37°20' E 011°12'1815.5
2014-Oct-14 17:24N 37°25' E 010°51'1315.7
2014-Oct-14 16:33N 37°29' E 010°34'1616.1
2014-Oct-14 15:33N 37°33' E 010°15'1716.7
2014-Oct-14 14:33N 37°31' E 009°54'1717.6
2014-Oct-14 13:33N 37°28' E 009°32'2017.5
2014-Oct-14 12:26N 37°25' E 009°07'42916.9
2014-Oct-13 11:00N 36°42' E 000°12'27117.6 260 / 19 2.025.017.525.0
2014-Oct-12 19:34N 35°58' W 005°20'  
2014-Oct-10 01:05N 39°34' W 027°30'1116.6
2014-Oct-10 00:24N 39°35' W 027°45'1416.4
2014-Oct-09 23:33N 39°37' W 028°03'1616.0
2014-Oct-09 22:33N 39°39' W 028°23'1615.8
2014-Oct-09 21:34N 39°40' W 028°44'1616.0
2014-Oct-09 20:33N 39°42' W 029°05'1616.1
2014-Oct-09 19:33N 39°43' W 029°25'1616.0
2014-Oct-09 18:33N 39°45' W 029°46'1616.3
2014-Oct-09 17:33N 39°46' W 030°07'10118.1
2014-Oct-09 12:00N 39°54' W 032°18'   270 / 111019.0 2.2 1.023.020.122.0
Track history (hours):
 
Tides and Currents Weather Stations Pressure Air Temp Water Temp Dewpoint Dewpoint Depression Visibility Wind Speed Wind Dir Waves Ship Positions

Chiricana

Last reported at 2014-Oct-21 06:00 UTC. Time now 2014-Oct-23 04:32 UTC.
Position N 15°00' E 041°48'.

Length 300 m; draft 12 m.

Type: Ship (hazmat cat B). MMSI: 372829000.

Wind from 150 at 26 knots

Waves 3.0 meters (10 feet), 2 second period

Barometer 1013.0 mb
Air temperature 31.0 ° C
Visibility: greater than 2.2 NM
Dewpoint 27.0 ° C
Water temperature 31.0 ° C

Date/timePositionNaut miles runAvg speedWind from/ knotsBaromVisibWave heightAir tempDewpointWater temp
2014-Oct-21 06:00N 15°00' E 041°48'   150 / 261013.0 2.2 3.031.027.031.0
2014-Oct-17 17:20N 31°24' E 032°19'2 1.2
2014-Oct-17 15:33N 31°26' E 032°17'21015.9
2014-Oct-17 02:20N 32°46' E 028°28'29216.0
2014-Oct-16 08:08N 34°13' E 022°53'5816.1
2014-Oct-16 04:33N 34°30' E 021°47'1615.8
2014-Oct-16 03:33N 34°35' E 021°29'1615.7
2014-Oct-16 02:33N 34°39' E 021°10'1615.7
2014-Oct-16 01:33N 34°44' E 020°52'1515.3
2014-Oct-16 00:33N 34°49' E 020°34'1615.7
2014-Oct-15 23:33N 34°53' E 020°16'1615.9
2014-Oct-15 22:33N 34°58' E 019°58'1615.9
2014-Oct-15 21:33N 35°02' E 019°39'1615.9
2014-Oct-15 20:33N 35°07' E 019°20'1615.8
2014-Oct-15 19:32N 35°12' E 019°02'1615.8
2014-Oct-15 18:33N 35°17' E 018°43'16116.1
2014-Oct-15 08:33N 36°05' E 015°34'1816.5
2014-Oct-15 07:29N 36°10' E 015°13'2016.2
2014-Oct-15 06:14N 36°16' E 014°49'1116.3
2014-Oct-15 05:33N 36°20' E 014°36'1616.2
2014-Oct-15 04:34N 36°24' E 014°17'1616.1
2014-Oct-15 03:34N 36°29' E 013°58'1615.9
2014-Oct-15 02:34N 36°34' E 013°39'1615.8
2014-Oct-15 01:34N 36°38' E 013°20'1615.6
2014-Oct-15 00:34N 36°43' E 013°02'1615.7
2014-Oct-14 23:34N 36°48' E 012°43'1615.9
2014-Oct-14 22:34N 36°53' E 012°24'1616.0
2014-Oct-14 21:34N 37°00' E 012°06'1616.2
2014-Oct-14 20:34N 37°07' E 011°48'1615.6
2014-Oct-14 19:32N 37°14' E 011°29'1515.6
2014-Oct-14 18:34N 37°20' E 011°12'1815.5
2014-Oct-14 17:24N 37°25' E 010°51'1315.7
2014-Oct-14 16:33N 37°29' E 010°34'1616.1
2014-Oct-14 15:33N 37°33' E 010°15'1716.7
2014-Oct-14 14:33N 37°31' E 009°54'1717.6
2014-Oct-14 13:33N 37°28' E 009°32'2017.5
2014-Oct-14 12:26N 37°25' E 009°07'42916.9
2014-Oct-13 11:00N 36°42' E 000°12'27117.6 260 / 19 2.025.017.525.0
2014-Oct-12 19:34N 35°58' W 005°20'  
2014-Oct-10 01:05N 39°34' W 027°30'1116.6
2014-Oct-10 00:24N 39°35' W 027°45'1416.4
2014-Oct-09 23:33N 39°37' W 028°03'1616.0
2014-Oct-09 22:33N 39°39' W 028°23'1615.8
2014-Oct-09 21:34N 39°40' W 028°44'1616.0
2014-Oct-09 20:33N 39°42' W 029°05'1616.1
2014-Oct-09 19:33N 39°43' W 029°25'1616.0
2014-Oct-09 18:33N 39°45' W 029°46'1616.3
2014-Oct-09 17:33N 39°46' W 030°07'10118.1
2014-Oct-09 12:00N 39°54' W 032°18'   270 / 111019.0 2.2 1.023.020.122.0

Dump ship's entire track history